LFTW 181630Z AUTO 28005KT 250V320 CAVOK 25/16 Q1010 TEMPO VRB15G30KT 2000 TSRA SCT050CB

ElémentsDécodage
LFTW Station météo située sur l'aérodrome de NIMES Garons
181630Z émis le 18 du mois à 16h30 UTC
AUTO Bulletin édité par un automate
28005KT vent du 280°, 05 noeuds
250V320 vent de direction variable entre 250° et 320°
CAVOK Ceiling And Visibility OK
- Visibilité de 10 Km ou plus
- Pas de nuage au-dessous de 1500m ou au-dessous de l'altitude minimale du secteur la plus élevée (si>1500m) et absence de CB
- pas de temps présent significatif
25/16 température 25°C, point de rosée 16°C
 soit une humidité relative de 57%
Q1010 la pression au niveau de la mer (QNH) est de 1010 hPa
TEMPO fluctuation temporaire prévue
VRB15G30KT vent de direction variable, moyenne: 15 noeuds, avec rafales à 30 noeuds
2000 visibilité horizontale de 2000 mètres
TSRA pluie d'orage
SCT050CB nuages épars (3/8 à 4/8) à 5000 pieds
 présence de cumulonimbus